Terminal Aerodrome Forecast
Issued by NWS Quad Cities IA IL

Home | Current Version | Previous Version | Text Only | Print | Product List | Glossary On
Versions: 1 2 3 4 5 6 7 8 9 10 11 12 13 14 15 16 17 18 19 20 21 22 23 24 25 26
000
FTUS43 KDVN 281342 AAA
TAFDBQ
TAF AMD
KDBQ 281342Z 2814/2912 23005KT P6SM OVC100
      TEMPO 2814/2816 4SM SHRA BR SCT008 OVC025
     FM281600 19013KT P6SM VCTS BKN035CB
     FM282000 17012G20KT 3SM TSRA BKN025CB
     FM290000 08005KT P6SM VCSH SCT025 BKN100=

USA.gov is the U.S. government's official web portal to all federal, state and local government web resources and services.